sensor_id;sensor_type;location;lat;lon;timestamp;pressure;altitude;pressure_sealevel;temperature;humidity
58991;BME280;44781;53.444;14.476;2023-04-01T00:01:01;99592.73;;;11.76;82.75
58991;BME280;44781;53.444;14.476;2023-04-01T00:03:29;99588.45;;;11.75;82.78
58991;BME280;44781;53.444;14.476;2023-04-01T00:05:57;99588.64;;;11.73;82.83
58991;BME280;44781;53.444;14.476;2023-04-01T00:08:25;99590.86;;;11.71;82.82
58991;BME280;44781;53.444;14.476;2023-04-01T00:10:53;99590.52;;;11.72;82.80
58991;BME280;44781;53.444;14.476;2023-04-01T00:13:21;99593.63;;;11.72;82.92
58991;BME280;44781;53.444;14.476;2023-04-01T00:15:50;99595.06;;;11.72;82.95
58991;BME280;44781;53.444;14.476;2023-04-01T00:18:17;99595.35;;;11.73;83.10
58991;BME280;44781;53.444;14.476;2023-04-01T00:20:46;99598.92;;;11.73;82.95
58991;BME280;44781;53.444;14.476;2023-04-01T00:23:15;99600.18;;;11.73;83.08
58991;BME280;44781;53.444;14.476;2023-04-01T00:25:43;99600.30;;;11.73;83.00
58991;BME280;44781;53.444;14.476;2023-04-01T00:28:22;99600.31;;;11.73;82.93
58991;BME280;44781;53.444;14.476;2023-04-01T00:30:49;99599.49;;;11.74;83.11
58991;BME280;44781;53.444;14.476;2023-04-01T00:33:16;99601.10;;;11.76;83.14
58991;BME280;44781;53.444;14.476;2023-04-01T00:35:44;99600.95;;;11.77;83.09
58991;BME280;44781;53.444;14.476;2023-04-01T00:38:12;99600.66;;;11.78;83.13
58991;BME280;44781;53.444;14.476;2023-04-01T00:40:44;99598.50;;;11.78;83.01
58991;BME280;44781;53.444;14.476;2023-04-01T00:43:17;99600.77;;;11.79;82.96
58991;BME280;44781;53.444;14.476;2023-04-01T00:45:48;99598.31;;;11.80;82.86
58991;BME280;44781;53.444;14.476;2023-04-01T00:51:00;99602.80;;;11.78;82.24
58991;BME280;44781;53.444;14.476;2023-04-01T00:54:20;99607.84;;;11.75;81.79
58991;BME280;44781;53.444;14.476;2023-04-01T00:57:45;99614.71;;;11.69;81.52
58991;BME280;44781;53.444;14.476;2023-04-01T01:01:32;99618.01;;;11.60;81.21
58991;BME280;44781;53.444;14.476;2023-04-01T01:11:19;99621.26;;;11.34;80.39
58991;BME280;44781;53.444;14.476;2023-04-01T01:18:08;99628.09;;;11.17;79.85
58991;BME280;44781;53.444;14.476;2023-04-01T01:21:07;99630.52;;;11.02;79.32
58991;BME280;44781;53.444;14.476;2023-04-01T01:39:26;99643.27;;;10.47;80.09
58991;BME280;44781;53.444;14.476;2023-04-01T01:42:58;99648.98;;;10.41;79.80
58991;BME280;44781;53.444;14.476;2023-04-01T01:46:09;99653.64;;;10.31;79.24
58991;BME280;44781;53.444;14.476;2023-04-01T01:49:26;99652.57;;;10.21;79.18
58991;BME280;44781;53.444;14.476;2023-04-01T01:52:00;99660.46;;;10.16;79.10
58991;BME280;44781;53.444;14.476;2023-04-01T01:54:59;99663.11;;;10.12;79.13
58991;BME280;44781;53.444;14.476;2023-04-01T02:01:12;99658.96;;;10.07;79.14
58991;BME280;44781;53.444;14.476;2023-04-01T02:04:06;99655.17;;;10.02;78.93
58991;BME280;44781;53.444;14.476;2023-04-01T02:07:00;99662.27;;;9.96;78.67
58991;BME280;44781;53.444;14.476;2023-04-01T02:10:08;99666.88;;;9.90;78.74
58991;BME280;44781;53.444;14.476;2023-04-01T02:13:08;99669.36;;;9.84;78.49
58991;BME280;44781;53.444;14.476;2023-04-01T02:20:17;99674.98;;;9.76;78.24
58991;BME280;44781;53.444;14.476;2023-04-01T02:23:25;99677.45;;;9.68;78.06
58991;BME280;44781;53.444;14.476;2023-04-01T02:26:54;99676.81;;;9.56;77.87
58991;BME280;44781;53.444;14.476;2023-04-01T02:30:20;99682.39;;;9.42;77.59
58991;BME280;44781;53.444;14.476;2023-04-01T02:33:27;99687.33;;;9.30;77.54
58991;BME280;44781;53.444;14.476;2023-04-01T02:36:59;99689.71;;;9.19;77.54
58991;BME280;44781;53.444;14.476;2023-04-01T02:40:17;99692.67;;;9.09;77.55
58991;BME280;44781;53.444;14.476;2023-04-01T02:46:54;99695.65;;;8.91;77.93
58991;BME280;44781;53.444;14.476;2023-04-01T02:49:48;99703.46;;;8.86;77.84
58991;BME280;44781;53.444;14.476;2023-04-01T02:53:22;99719.79;;;8.85;77.71
58991;BME280;44781;53.444;14.476;2023-04-01T02:56:18;99724.98;;;8.78;77.68
58991;BME280;44781;53.444;14.476;2023-04-01T02:59:32;99729.27;;;8.68;77.74
58991;BME280;44781;53.444;14.476;2023-04-01T03:02:33;99730.90;;;8.63;77.75
58991;BME280;44781;53.444;14.476;2023-04-01T03:05:04;99730.71;;;8.61;77.70
58991;BME280;44781;53.444;14.476;2023-04-01T03:07:35;99730.73;;;8.59;77.74
58991;BME280;44781;53.444;14.476;2023-04-01T03:10:02;99733.39;;;8.57;77.84
58991;BME280;44781;53.444;14.476;2023-04-01T03:12:52;99734.02;;;8.54;77.71
58991;BME280;44781;53.444;14.476;2023-04-01T03:15:55;99733.61;;;8.46;77.63
58991;BME280;44781;53.444;14.476;2023-04-01T03:18:54;99736.71;;;8.36;77.66
58991;BME280;44781;53.444;14.476;2023-04-01T03:21:34;99738.37;;;8.28;77.85
58991;BME280;44781;53.444;14.476;2023-04-01T03:24:04;99739.04;;;8.24;77.94
58991;BME280;44781;53.444;14.476;2023-04-01T03:26:45;99743.04;;;8.23;78.10
58991;BME280;44781;53.444;14.476;2023-04-01T03:29:40;99748.25;;;8.21;78.13
58991;BME280;44781;53.444;14.476;2023-04-01T03:32:20;99750.30;;;8.20;78.47
58991;BME280;44781;53.444;14.476;2023-04-01T03:34:58;99755.05;;;8.20;78.62
58991;BME280;44781;53.444;14.476;2023-04-01T03:38:04;99755.70;;;8.19;78.54
58991;BME280;44781;53.444;14.476;2023-04-01T03:40:45;99762.35;;;8.17;78.66
58991;BME280;44781;53.444;14.476;2023-04-01T03:43:55;99763.15;;;8.14;78.67
58991;BME280;44781;53.444;14.476;2023-04-01T03:46:47;99764.95;;;8.11;78.50
58991;BME280;44781;53.444;14.476;2023-04-01T03:49:36;99768.60;;;8.07;78.37
58991;BME280;44781;53.444;14.476;2023-04-01T03:52:12;99772.43;;;8.07;78.70
58991;BME280;44781;53.444;14.476;2023-04-01T03:54:47;99777.77;;;8.09;78.87
58991;BME280;44781;53.444;14.476;2023-04-01T03:57:24;99782.24;;;8.08;78.78
58991;BME280;44781;53.444;14.476;2023-04-01T04:00:13;99787.19;;;8.05;78.77
58991;BME280;44781;53.444;14.476;2023-04-01T04:07:13;99798.55;;;7.94;78.58
58991;BME280;44781;53.444;14.476;2023-04-01T04:10:10;99806.60;;;7.89;78.48
58991;BME280;44781;53.444;14.476;2023-04-01T04:13:42;99812.77;;;7.87;78.78
58991;BME280;44781;53.444;14.476;2023-04-01T04:16:57;99816.30;;;7.87;78.97
58991;BME280;44781;53.444;14.476;2023-04-01T04:19:58;99816.39;;;7.86;79.04
58991;BME280;44781;53.444;14.476;2023-04-01T04:22:37;99821.02;;;7.85;79.13
58991;BME280;44781;53.444;14.476;2023-04-01T04:25:28;99821.11;;;7.80;78.99
58991;BME280;44781;53.444;14.476;2023-04-01T04:28:29;99826.14;;;7.69;78.60
58991;BME280;44781;53.444;14.476;2023-04-01T04:31:01;99829.84;;;7.60;78.60
58991;BME280;44781;53.444;14.476;2023-04-01T04:41:21;99830.05;;;7.53;79.39
58991;BME280;44781;53.444;14.476;2023-04-01T04:44:16;99840.13;;;7.50;79.44
58991;BME280;44781;53.444;14.476;2023-04-01T04:47:20;99844.52;;;7.45;79.52
58991;BME280;44781;53.444;14.476;2023-04-01T04:50:12;99847.62;;;7.42;79.60
58991;BME280;44781;53.444;14.476;2023-04-01T04:53:10;99853.45;;;7.39;79.60
58991;BME280;44781;53.444;14.476;2023-04-01T04:56:11;99852.23;;;7.36;79.58
58991;BME280;44781;53.444;14.476;2023-04-01T04:59:09;99854.52;;;7.34;79.72
58991;BME280;44781;53.444;14.476;2023-04-01T05:02:05;99861.38;;;7.31;79.89
58991;BME280;44781;53.444;14.476;2023-04-01T05:05:00;99862.96;;;7.31;80.00
58991;BME280;44781;53.444;14.476;2023-04-01T05:07:34;99861.23;;;7.31;80.30
58991;BME280;44781;53.444;14.476;2023-04-01T05:10:12;99864.52;;;7.32;80.16
58991;BME280;44781;53.444;14.476;2023-04-01T05:12:40;99868.60;;;7.31;80.04
58991;BME280;44781;53.444;14.476;2023-04-01T05:15:11;99872.06;;;7.30;79.93
58991;BME280;44781;53.444;14.476;2023-04-01T05:17:39;99877.36;;;7.25;79.95
58991;BME280;44781;53.444;14.476;2023-04-01T05:20:07;99881.77;;;7.20;80.03
58991;BME280;44781;53.444;14.476;2023-04-01T05:23:10;99885.01;;;7.12;79.97
58991;BME280;44781;53.444;14.476;2023-04-01T05:26:14;99884.13;;;7.05;80.29
58991;BME280;44781;53.444;14.476;2023-04-01T05:28:54;99886.08;;;7.00;80.41
58991;BME280;44781;53.444;14.476;2023-04-01T05:31:26;99888.36;;;6.95;80.47
58991;BME280;44781;53.444;14.476;2023-04-01T05:33:54;99889.39;;;6.93;80.53
58991;BME280;44781;53.444;14.476;2023-04-01T05:36:26;99892.08;;;6.93;80.56
58991;BME280;44781;53.444;14.476;2023-04-01T05:38:59;99894.44;;;6.94;80.73
58991;BME280;44781;53.444;14.476;2023-04-01T05:41:29;99895.30;;;6.96;81.02
58991;BME280;44781;53.444;14.476;2023-04-01T05:44:13;99899.02;;;6.96;80.88
58991;BME280;44781;53.444;14.476;2023-04-01T05:46:41;99897.59;;;6.92;80.82
58991;BME280;44781;53.444;14.476;2023-04-01T05:49:21;99905.14;;;6.87;80.88
58991;BME280;44781;53.444;14.476;2023-04-01T05:51:49;99907.26;;;6.84;81.02
58991;BME280;44781;53.444;14.476;2023-04-01T05:54:21;99911.23;;;6.83;81.07
58991;BME280;44781;53.444;14.476;2023-04-01T05:56:51;99911.43;;;6.80;81.26
58991;BME280;44781;53.444;14.476;2023-04-01T05:59:42;99909.81;;;6.78;81.33
58991;BME280;44781;53.444;14.476;2023-04-01T06:02:36;99918.30;;;6.78;81.47
58991;BME280;44781;53.444;14.476;2023-04-01T06:05:23;99919.03;;;6.80;81.72
58991;BME280;44781;53.444;14.476;2023-04-01T06:08:13;99916.41;;;6.82;81.96
58991;BME280;44781;53.444;14.476;2023-04-01T06:11:04;99922.95;;;6.81;81.81
58991;BME280;44781;53.444;14.476;2023-04-01T06:14:10;99923.29;;;6.77;81.71
58991;BME280;44781;53.444;14.476;2023-04-01T07:22:27;99993.98;;;7.04;82.65
58991;BME280;44781;53.444;14.476;2023-04-01T07:25:59;100002.05;;;7.08;82.85
58991;BME280;44781;53.444;14.476;2023-04-01T07:29:22;100006.73;;;7.16;82.91
58991;BME280;44781;53.444;14.476;2023-04-01T07:48:57;100028.71;;;7.14;82.22
58991;BME280;44781;53.444;14.476;2023-04-01T08:29:13;100069.66;;;7.23;82.20
58991;BME280;44781;53.444;14.476;2023-04-01T09:06:09;100110.85;;;7.56;81.57
58991;BME280;44781;53.444;14.476;2023-04-01T09:09:09;100115.01;;;7.59;81.58
58991;BME280;44781;53.444;14.476;2023-04-01T09:12:39;100120.72;;;7.61;81.29
58991;BME280;44781;53.444;14.476;2023-04-01T09:47:48;100168.95;;;7.47;79.83
58991;BME280;44781;53.444;14.476;2023-04-01T10:18:35;100192.93;;;7.63;79.33
58991;BME280;44781;53.444;14.476;2023-04-01T11:44:33;100281.85;;;8.01;74.10
58991;BME280;44781;53.444;14.476;2023-04-01T11:57:29;100283.28;;;7.68;74.80
58991;BME280;44781;53.444;14.476;2023-04-01T12:07:03;100290.55;;;7.75;75.24
58991;BME280;44781;53.444;14.476;2023-04-01T12:10:16;100279.90;;;7.67;75.01
58991;BME280;44781;53.444;14.476;2023-04-01T12:13:40;100306.04;;;7.72;74.75
58991;BME280;44781;53.444;14.476;2023-04-01T12:16:44;100311.63;;;7.68;74.69
58991;BME280;44781;53.444;14.476;2023-04-01T12:37:52;100336.30;;;7.47;74.18
58991;BME280;44781;53.444;14.476;2023-04-01T12:49:01;100353.36;;;7.29;73.47
58991;BME280;44781;53.444;14.476;2023-04-01T12:52:12;100357.20;;;7.22;73.26
58991;BME280;44781;53.444;14.476;2023-04-01T13:00:43;100364.73;;;7.11;73.80
58991;BME280;44781;53.444;14.476;2023-04-01T13:06:36;100368.29;;;7.14;73.67
58991;BME280;44781;53.444;14.476;2023-04-01T13:17:22;100379.17;;;7.19;73.52
58991;BME280;44781;53.444;14.476;2023-04-01T13:23:09;100390.56;;;7.14;73.24
58991;BME280;44781;53.444;14.476;2023-04-01T13:25:46;100394.81;;;7.08;73.16
58991;BME280;44781;53.444;14.476;2023-04-01T13:28:27;100398.75;;;7.04;73.15
58991;BME280;44781;53.444;14.476;2023-04-01T13:31:09;100404.27;;;7.01;73.23
58991;BME280;44781;53.444;14.476;2023-04-01T13:36:28;100411.80;;;7.01;73.18
58991;BME280;44781;53.444;14.476;2023-04-01T13:42:21;100417.71;;;7.07;73.20
58991;BME280;44781;53.444;14.476;2023-04-01T13:45:21;100418.11;;;7.09;73.03
58991;BME280;44781;53.444;14.476;2023-04-01T13:54:32;100425.38;;;7.00;72.39
58991;BME280;44781;53.444;14.476;2023-04-01T13:57:56;100434.26;;;6.93;72.20
58991;BME280;44781;53.444;14.476;2023-04-01T14:12:19;100452.60;;;6.73;72.29
58991;BME280;44781;53.444;14.476;2023-04-01T14:18:37;100463.45;;;6.71;72.11
58991;BME280;44781;53.444;14.476;2023-04-01T14:22:23;100464.78;;;6.69;72.21
58991;BME280;44781;53.444;14.476;2023-04-01T14:41:09;100491.89;;;6.55;72.13
58991;BME280;44781;53.444;14.476;2023-04-01T14:51:38;100503.36;;;6.42;71.97
58991;BME280;44781;53.444;14.476;2023-04-01T14:54:31;100508.74;;;6.41;71.78
58991;BME280;44781;53.444;14.476;2023-04-01T15:00:13;100516.98;;;6.41;71.97
58991;BME280;44781;53.444;14.476;2023-04-01T15:06:32;100534.12;;;6.39;71.85
58991;BME280;44781;53.444;14.476;2023-04-01T15:33:06;100559.33;;;6.08;71.50
58991;BME280;44781;53.444;14.476;2023-04-01T15:57:32;100593.05;;;5.80;71.23
58991;BME280;44781;53.444;14.476;2023-04-01T16:00:23;100597.77;;;5.74;71.22
58991;BME280;44781;53.444;14.476;2023-04-01T16:21:03;100637.80;;;5.79;71.86
58991;BME280;44781;53.444;14.476;2023-04-01T16:23:58;100643.11;;;5.78;71.71
58991;BME280;44781;53.444;14.476;2023-04-01T16:26:53;100649.23;;;5.75;71.50
58991;BME280;44781;53.444;14.476;2023-04-01T16:37:49;100680.42;;;5.60;71.46
58991;BME280;44781;53.444;14.476;2023-04-01T16:43:38;100688.27;;;5.48;70.90
58991;BME280;44781;53.444;14.476;2023-04-01T16:50:11;100700.58;;;5.41;70.77
58991;BME280;44781;53.444;14.476;2023-04-01T16:57:27;100720.48;;;5.33;70.47
58991;BME280;44781;53.444;14.476;2023-04-01T17:00:38;100723.89;;;5.25;70.45
58991;BME280;44781;53.444;14.476;2023-04-01T17:03:20;100729.71;;;5.18;70.36
58991;BME280;44781;53.444;14.476;2023-04-01T17:14:54;100756.45;;;4.95;70.71
58991;BME280;44781;53.444;14.476;2023-04-01T17:28:53;100777.28;;;4.85;70.99
58991;BME280;44781;53.444;14.476;2023-04-01T18:06:33;100839.48;;;4.52;70.04
58991;BME280;44781;53.444;14.476;2023-04-01T18:09:33;100844.36;;;4.53;69.89
58991;BME280;44781;53.444;14.476;2023-04-01T18:12:55;100854.84;;;4.53;69.93
58991;BME280;44781;53.444;14.476;2023-04-01T18:25:28;100876.62;;;4.52;69.58
58991;BME280;44781;53.444;14.476;2023-04-01T23:29:51;101280.05;;;3.71;66.70
58991;BME280;44781;53.444;14.476;2023-04-01T23:47:45;101302.24;;;3.71;66.46
58991;BME280;44781;53.444;14.476;2023-04-01T23:50:32;101309.14;;;3.73;66.49
58991;BME280;44781;53.444;14.476;2023-04-01T23:53:44;101315.16;;;3.80;66.61
